createdAt,value
2023-04-21T00:00:00.512Z,5.7
2023-04-21T00:01:00.546Z,5.7
2023-04-21T00:02:00.545Z,5.7
2023-04-21T00:03:00.728Z,5.7
2023-04-21T00:04:00.693Z,5.7
2023-04-21T00:05:00.783Z,5.7
2023-04-21T00:06:00.531Z,5.7
2023-04-21T00:07:00.519Z,5.7
2023-04-21T00:08:00.581Z,5.7
2023-04-21T00:09:00.487Z,5.7
2023-04-21T00:10:00.488Z,5.0
2023-04-21T00:11:00.509Z,5.0
2023-04-21T00:12:00.518Z,5.0
2023-04-21T00:13:00.499Z,5.0
2023-04-21T00:14:00.580Z,5.0
2023-04-21T00:15:00.566Z,5.0
2023-04-21T00:16:00.644Z,5.0
2023-04-21T00:17:00.514Z,5.0
2023-04-21T00:18:00.569Z,5.0
2023-04-21T00:19:00.645Z,5.0
2023-04-21T00:20:00.573Z,5.1
2023-04-21T00:21:00.504Z,5.1
2023-04-21T00:22:00.498Z,5.1
2023-04-21T00:23:00.614Z,5.1
2023-04-21T00:24:00.604Z,5.1
2023-04-21T00:25:00.604Z,5.1
2023-04-21T00:26:00.491Z,5.1
2023-04-21T00:27:00.499Z,5.1
2023-04-21T00:28:00.500Z,5.1
2023-04-21T00:29:00.511Z,5.1
2023-04-21T00:30:00.652Z,6.8
2023-04-21T00:31:00.558Z,6.8
2023-04-21T00:32:00.476Z,6.8
2023-04-21T00:33:00.558Z,6.8
2023-04-21T00:34:00.476Z,6.8
2023-04-21T00:35:00.525Z,6.8
2023-04-21T00:36:00.482Z,6.8
2023-04-21T00:37:00.580Z,6.8
2023-04-21T00:38:00.541Z,6.8
2023-04-21T00:39:00.661Z,6.8
2023-04-21T00:40:00.602Z,5.4
2023-04-21T00:41:00.730Z,5.4
2023-04-21T00:42:00.496Z,5.4
2023-04-21T00:43:00.504Z,5.4
2023-04-21T00:44:00.486Z,5.4
2023-04-21T00:45:00.543Z,5.4
2023-04-21T00:46:00.493Z,5.4
2023-04-21T00:47:00.637Z,5.4
2023-04-21T00:48:00.603Z,5.4
2023-04-21T00:49:02.828Z,5.4
2023-04-21T00:50:01.278Z,5.6
2023-04-21T00:51:00.532Z,5.6
2023-04-21T00:52:00.773Z,5.6
2023-04-21T00:53:00.504Z,5.6
2023-04-21T00:54:03.021Z,5.6
2023-04-21T00:55:01.252Z,5.6
2023-04-21T00:56:00.628Z,5.6
2023-04-21T00:57:02.784Z,5.6
2023-04-21T00:58:01.661Z,5.6
2023-04-21T00:59:00.557Z,5.6
2023-04-21T01:00:01.148Z,5.6
2023-04-21T01:01:00.764Z,5.6
2023-04-21T01:02:00.654Z,5.6
2023-04-21T01:03:00.654Z,5.6
2023-04-21T01:04:01.588Z,5.6
2023-04-21T01:05:00.651Z,5.6
2023-04-21T01:06:00.708Z,5.6
2023-04-21T01:07:00.811Z,5.6
2023-04-21T01:08:01.076Z,5.6
2023-04-21T01:09:01.018Z,5.6
2023-04-21T01:10:00.824Z,6.2
2023-04-21T01:11:07.755Z,6.2
2023-04-21T01:12:09.108Z,6.2
2023-04-21T01:13:00.522Z,6.2
2023-04-21T01:14:00.597Z,6.2
2023-04-21T01:15:00.540Z,6.2
2023-04-21T01:16:00.583Z,6.2
2023-04-21T01:17:00.886Z,6.2
2023-04-21T01:18:00.531Z,6.2
2023-04-21T01:19:01.402Z,6.2
2023-04-21T01:20:00.976Z,4.7
2023-04-21T01:21:00.506Z,4.7
2023-04-21T01:22:01.430Z,4.7
2023-04-21T01:23:00.549Z,4.7
2023-04-21T01:24:00.507Z,4.7
2023-04-21T01:25:00.783Z,4.7
2023-04-21T01:26:00.522Z,4.7
2023-04-21T01:27:00.498Z,4.7
2023-04-21T01:28:00.569Z,4.7
2023-04-21T01:29:00.505Z,4.7
2023-04-21T01:30:00.734Z,4.9
2023-04-21T01:31:00.643Z,4.9
2023-04-21T01:32:09.483Z,4.9
2023-04-21T01:33:00.572Z,4.9
2023-04-21T01:34:03.846Z,4.9
2023-04-21T01:35:00.579Z,4.9
2023-04-21T01:36:00.535Z,4.9
2023-04-21T01:37:00.568Z,4.9
2023-04-21T01:38:00.595Z,4.9
2023-04-21T01:39:00.588Z,4.9
2023-04-21T01:40:02.917Z,5.0
2023-04-21T01:41:00.533Z,5.0
2023-04-21T01:42:00.511Z,5.0
2023-04-21T01:43:00.591Z,5.0
2023-04-21T01:44:00.574Z,5.0
2023-04-21T01:45:00.707Z,5.0
2023-04-21T01:46:00.570Z,5.0
2023-04-21T01:47:00.726Z,5.0
2023-04-21T01:48:00.536Z,5.0
2023-04-21T01:49:00.670Z,5.0
2023-04-21T01:50:00.616Z,4.4
2023-04-21T01:51:00.536Z,4.4
2023-04-21T01:52:00.537Z,4.4
2023-04-21T01:53:00.556Z,4.4
2023-04-21T01:54:00.526Z,4.4
2023-04-21T01:55:00.648Z,4.4
2023-04-21T01:56:00.552Z,4.4
2023-04-21T01:57:00.607Z,4.4
2023-04-21T01:58:00.656Z,4.4
2023-04-21T01:59:00.556Z,4.4
2023-04-21T02:00:00.667Z,3.7
2023-04-21T02:01:00.559Z,3.7
2023-04-21T02:02:00.543Z,3.7
2023-04-21T02:03:00.686Z,3.7
2023-04-21T02:04:01.470Z,3.7
2023-04-21T02:05:00.503Z,3.7
2023-04-21T02:06:00.558Z,3.7
2023-04-21T02:07:00.602Z,3.7
2023-04-21T02:08:00.564Z,3.7
2023-04-21T02:09:00.622Z,3.7
2023-04-21T02:10:00.633Z,4.6
2023-04-21T02:11:00.682Z,4.6
2023-04-21T02:12:00.893Z,4.6
2023-04-21T02:13:00.522Z,4.6
2023-04-21T02:14:00.582Z,4.6
2023-04-21T02:15:00.539Z,4.6
2023-04-21T02:16:12.804Z,4.6
2023-04-21T02:17:00.518Z,4.6
2023-04-21T02:18:00.610Z,4.6
2023-04-21T02:19:00.534Z,4.6
2023-04-21T02:20:02.013Z,4.0
2023-04-21T02:21:00.516Z,4.0
2023-04-21T02:22:00.504Z,4.0
2023-04-21T02:23:00.509Z,4.0
2023-04-21T02:24:00.489Z,4.0
2023-04-21T02:25:00.533Z,4.0
2023-04-21T02:26:00.530Z,4.0
2023-04-21T02:27:00.612Z,4.0
2023-04-21T02:28:00.523Z,4.0
2023-04-21T02:29:00.789Z,4.0
2023-04-21T02:30:00.533Z,4.0
2023-04-21T02:31:00.654Z,4.0
2023-04-21T02:32:07.845Z,4.0
2023-04-21T02:33:00.515Z,4.0
2023-04-21T02:34:00.524Z,4.0
2023-04-21T02:35:00.502Z,4.0
2023-04-21T02:36:00.565Z,4.0
2023-04-21T02:37:00.555Z,4.0
2023-04-21T02:38:00.484Z,4.0
2023-04-21T02:39:00.504Z,4.0
2023-04-21T02:40:02.525Z,5.2
2023-04-21T02:41:00.525Z,5.2
2023-04-21T02:42:00.569Z,5.2
2023-04-21T02:43:00.561Z,5.2
2023-04-21T02:44:00.494Z,5.2
2023-04-21T02:45:00.508Z,5.2
2023-04-21T02:46:04.761Z,5.2
2023-04-21T02:47:00.731Z,5.2
2023-04-21T02:48:00.610Z,5.2
2023-04-21T02:49:00.513Z,5.2
2023-04-21T02:50:00.506Z,3.6
2023-04-21T02:51:00.547Z,3.6
2023-04-21T02:52:00.491Z,3.6
2023-04-21T02:53:00.709Z,3.6
2023-04-21T02:54:00.517Z,3.6
2023-04-21T02:55:00.495Z,3.6
2023-04-21T02:56:00.513Z,3.6
2023-04-21T02:57:00.549Z,3.6
2023-04-21T02:58:00.515Z,3.6
2023-04-21T02:59:00.525Z,3.6
2023-04-21T03:00:00.523Z,3.8
2023-04-21T03:01:01.017Z,3.8
2023-04-21T03:02:00.556Z,3.8
2023-04-21T03:03:00.748Z,3.8
2023-04-21T03:04:00.665Z,3.8
2023-04-21T03:05:00.509Z,3.8
2023-04-21T03:06:01.691Z,3.8
2023-04-21T03:07:00.531Z,3.8
2023-04-21T03:08:00.514Z,3.8
2023-04-21T03:09:00.535Z,3.8
2023-04-21T03:10:00.532Z,3.3
2023-04-21T03:11:00.536Z,3.3
2023-04-21T03:12:00.508Z,3.3
2023-04-21T03:13:00.492Z,3.3
2023-04-21T03:14:00.490Z,3.3
2023-04-21T03:15:00.660Z,3.3
2023-04-21T03:16:00.548Z,3.3
2023-04-21T03:17:00.540Z,3.3
2023-04-21T03:18:00.536Z,3.3
2023-04-21T03:19:00.509Z,3.3
2023-04-21T03:20:00.551Z,3.5
2023-04-21T03:21:00.543Z,3.5
2023-04-21T03:22:00.515Z,3.5
2023-04-21T03:23:00.552Z,3.5
2023-04-21T03:24:00.525Z,3.5
2023-04-21T03:25:00.677Z,3.5
2023-04-21T03:26:04.947Z,3.5
2023-04-21T03:27:00.514Z,3.5
2023-04-21T03:28:00.687Z,3.5
2023-04-21T03:29:00.519Z,3.5
2023-04-21T03:30:00.616Z,3.1
2023-04-21T03:31:00.521Z,3.1
2023-04-21T03:32:00.761Z,3.1
2023-04-21T03:33:00.546Z,3.1
2023-04-21T03:34:00.491Z,3.1
2023-04-21T03:35:00.539Z,3.1
2023-04-21T03:36:00.526Z,3.1
2023-04-21T03:37:00.582Z,3.1
2023-04-21T03:39:12.776Z,3.1
2023-04-21T03:40:00.563Z,4.1
2023-04-21T03:41:02.444Z,4.1
2023-04-21T03:42:00.499Z,4.1
2023-04-21T03:43:00.505Z,4.1
2023-04-21T03:44:00.656Z,4.1
2023-04-21T03:45:02.100Z,4.1
2023-04-21T03:46:00.592Z,4.1
2023-04-21T03:47:00.547Z,4.1
2023-04-21T03:48:00.612Z,4.1
2023-04-21T03:49:02.576Z,4.1
2023-04-21T03:50:02.530Z,2.9
2023-04-21T03:51:00.521Z,2.9
2023-04-21T03:52:00.536Z,2.9
2023-04-21T03:53:00.493Z,2.9
2023-04-21T03:54:00.488Z,2.9
2023-04-21T03:55:00.517Z,2.9
2023-04-21T03:56:00.512Z,2.9
2023-04-21T03:57:00.548Z,2.9
2023-04-21T03:58:00.544Z,2.9
2023-04-21T03:59:00.606Z,2.9
2023-04-21T04:00:00.531Z,2.9
2023-04-21T04:01:00.573Z,2.9
2023-04-21T04:02:00.589Z,2.9
2023-04-21T04:03:00.755Z,2.9
2023-04-21T04:04:00.834Z,2.9
2023-04-21T04:05:00.556Z,2.9
2023-04-21T04:06:00.532Z,2.9
2023-04-21T04:07:00.519Z,2.9
2023-04-21T04:08:00.545Z,2.9
2023-04-21T04:09:00.790Z,2.9
2023-04-21T04:10:00.641Z,2.9
2023-04-21T04:11:00.508Z,2.9
2023-04-21T04:12:00.608Z,2.9
2023-04-21T04:13:00.536Z,2.9
2023-04-21T04:14:00.508Z,2.9
2023-04-21T04:15:00.519Z,2.9
2023-04-21T04:16:00.527Z,2.9
2023-04-21T04:17:00.510Z,2.9
2023-04-21T04:18:00.553Z,2.9
2023-04-21T04:19:00.657Z,2.9
2023-04-21T04:20:00.567Z,2.9
2023-04-21T04:21:07.966Z,3.7
2023-04-21T04:22:00.728Z,3.7
2023-04-21T04:23:00.482Z,3.7
2023-04-21T04:24:00.552Z,3.7
2023-04-21T04:25:00.562Z,3.7
2023-04-21T04:26:00.524Z,3.7
2023-04-21T04:27:00.760Z,3.7
2023-04-21T04:28:00.513Z,3.7
2023-04-21T04:29:00.514Z,3.7
2023-04-21T04:30:00.668Z,3.7
2023-04-21T04:31:00.599Z,4.0
2023-04-21T04:32:00.597Z,4.0
2023-04-21T04:33:00.654Z,4.0
2023-04-21T04:34:00.519Z,4.0
2023-04-21T04:35:00.491Z,4.0
2023-04-21T04:36:00.776Z,4.0
2023-04-21T04:37:01.103Z,4.0
2023-04-21T04:38:00.528Z,4.0
2023-04-21T04:39:00.504Z,4.0
2023-04-21T04:40:00.561Z,4.0
2023-04-21T04:41:00.597Z,4.0
2023-04-21T04:42:00.545Z,4.0
2023-04-21T04:43:00.564Z,4.0
2023-04-21T04:44:01.051Z,4.0
2023-04-21T04:45:00.537Z,4.0
2023-04-21T04:46:00.482Z,4.0
2023-04-21T04:47:00.632Z,4.0
2023-04-21T04:48:00.749Z,4.0
2023-04-21T04:49:00.750Z,4.0
2023-04-21T04:50:00.496Z,4.0
2023-04-21T04:51:00.497Z,4.7
2023-04-21T04:52:00.526Z,4.7
2023-04-21T04:53:00.487Z,4.7
2023-04-21T04:54:00.642Z,4.7
2023-04-21T04:55:00.620Z,4.7
2023-04-21T04:56:00.598Z,4.7
2023-04-21T04:57:00.600Z,4.7
2023-04-21T04:58:00.536Z,4.7
2023-04-21T04:59:00.532Z,4.7
2023-04-21T05:00:00.520Z,4.7
2023-04-21T05:01:09.580Z,4.6
2023-04-21T05:02:00.599Z,4.6
2023-04-21T05:03:00.799Z,4.6
2023-04-21T05:04:00.644Z,4.6
2023-04-21T05:05:00.654Z,4.6
2023-04-21T05:06:00.510Z,4.6
2023-04-21T05:07:00.637Z,4.6
2023-04-21T05:08:00.512Z,4.6
2023-04-21T05:09:00.541Z,4.6
2023-04-21T05:10:00.524Z,4.6
2023-04-21T05:11:00.566Z,4.1
2023-04-21T05:12:00.510Z,4.1
2023-04-21T05:13:00.480Z,4.1
2023-04-21T05:14:00.513Z,4.1
2023-04-21T05:15:00.593Z,4.1
2023-04-21T05:16:00.780Z,4.1
2023-04-21T05:17:00.552Z,4.1
2023-04-21T05:18:00.578Z,4.1
2023-04-21T05:19:00.936Z,4.1
2023-04-21T05:20:00.535Z,4.1
2023-04-21T05:21:00.544Z,3.2
2023-04-21T05:22:00.504Z,3.2
2023-04-21T05:23:00.510Z,3.2
2023-04-21T05:24:00.519Z,3.2
2023-04-21T05:25:00.548Z,3.2
2023-04-21T05:26:03.411Z,3.2
2023-04-21T05:27:00.573Z,3.2
2023-04-21T05:28:00.490Z,3.2
2023-04-21T05:29:00.497Z,3.2
2023-04-21T05:30:00.524Z,3.2
2023-04-21T05:31:00.543Z,4.2
2023-04-21T05:32:00.637Z,4.2
2023-04-21T05:33:00.569Z,4.2
2023-04-21T05:34:00.582Z,4.2
2023-04-21T05:35:00.641Z,4.2
2023-04-21T05:36:00.514Z,4.2
2023-04-21T05:37:00.505Z,4.2
2023-04-21T05:38:00.726Z,4.2
2023-04-21T05:39:00.562Z,4.2
2023-04-21T05:40:00.635Z,4.2
2023-04-21T05:41:00.616Z,4.6
2023-04-21T05:42:00.517Z,4.6
2023-04-21T05:43:00.500Z,4.6
2023-04-21T05:44:00.627Z,4.6
2023-04-21T05:45:00.564Z,4.6
2023-04-21T05:46:01.084Z,4.6
2023-04-21T05:47:00.531Z,4.6
2023-04-21T05:48:00.611Z,4.6
2023-04-21T05:49:00.663Z,4.6
2023-04-21T05:50:00.511Z,4.6
2023-04-21T05:51:08.604Z,4.1
2023-04-21T05:52:00.512Z,4.1
2023-04-21T05:53:00.924Z,4.1
2023-04-21T05:54:00.577Z,4.1
2023-04-21T05:55:00.514Z,4.1
2023-04-21T05:56:00.501Z,4.1
2023-04-21T05:57:00.510Z,4.1
2023-04-21T05:58:00.561Z,4.1
2023-04-21T05:59:00.474Z,4.1
2023-04-21T06:00:00.672Z,4.1
2023-04-21T06:01:00.714Z,3.4
2023-04-21T06:02:00.596Z,3.4
2023-04-21T06:03:00.812Z,3.4
2023-04-21T06:04:00.761Z,3.4
2023-04-21T06:05:00.876Z,3.4
2023-04-21T06:06:02.280Z,3.4
2023-04-21T06:07:05.412Z,3.4
2023-04-21T06:08:00.502Z,3.4
2023-04-21T06:09:00.516Z,3.4
2023-04-21T06:10:00.518Z,3.4
2023-04-21T06:11:00.595Z,3.3
2023-04-21T06:12:00.874Z,3.3
2023-04-21T06:13:00.527Z,3.3
2023-04-21T06:14:00.485Z,3.3
2023-04-21T06:15:00.493Z,3.3
2023-04-21T06:16:00.534Z,3.3
2023-04-21T06:17:00.527Z,3.3
2023-04-21T06:18:00.607Z,3.3
2023-04-21T06:19:00.503Z,3.3
2023-04-21T06:20:00.531Z,3.3
2023-04-21T06:21:00.506Z,3.1
2023-04-21T06:22:00.566Z,3.1
2023-04-21T06:23:00.568Z,3.1
2023-04-21T06:24:00.493Z,3.1
2023-04-21T06:25:00.725Z,3.1
2023-04-21T06:26:01.208Z,3.1
2023-04-21T06:27:00.990Z,3.1
2023-04-21T06:28:00.571Z,3.1
2023-04-21T06:29:00.547Z,3.1
2023-04-21T06:30:00.532Z,3.1
2023-04-21T06:31:01.101Z,2.9
2023-04-21T06:32:00.546Z,2.9
2023-04-21T06:33:00.650Z,2.9
2023-04-21T06:34:00.500Z,2.9
2023-04-21T06:35:00.511Z,2.9
2023-04-21T06:36:00.539Z,2.9
2023-04-21T06:37:00.566Z,2.9
2023-04-21T06:38:00.501Z,2.9
2023-04-21T06:39:00.505Z,2.9
2023-04-21T06:40:00.525Z,2.9
2023-04-21T06:41:00.520Z,3.0
2023-04-21T06:42:00.515Z,3.0
2023-04-21T06:43:00.509Z,3.0
2023-04-21T06:44:00.565Z,3.0
2023-04-21T06:45:00.526Z,3.0
2023-04-21T06:46:00.505Z,3.0
2023-04-21T06:47:00.568Z,3.0
2023-04-21T06:48:00.576Z,3.0
2023-04-21T06:49:00.533Z,3.0
2023-04-21T06:50:00.508Z,3.0
2023-04-21T06:51:00.541Z,3.1
2023-04-21T06:52:00.766Z,3.1
2023-04-21T06:53:00.529Z,3.1
2023-04-21T06:54:00.509Z,3.1
2023-04-21T06:55:00.625Z,3.1
2023-04-21T06:56:00.530Z,3.1
2023-04-21T06:57:00.505Z,3.1
2023-04-21T06:58:00.524Z,3.1
2023-04-21T06:59:00.539Z,3.1
2023-04-21T07:00:00.605Z,3.1
2023-04-21T07:01:00.561Z,2.8
2023-04-21T07:02:00.569Z,2.8
2023-04-21T07:03:00.627Z,2.8
2023-04-21T07:04:00.628Z,2.8
2023-04-21T07:05:00.512Z,2.8
2023-04-21T07:06:00.603Z,2.8
2023-04-21T07:07:02.965Z,2.8
2023-04-21T07:08:00.504Z,2.8
2023-04-21T07:09:00.581Z,2.8
2023-04-21T07:10:00.651Z,2.8
2023-04-21T07:11:00.514Z,2.5
2023-04-21T07:12:00.513Z,2.5
2023-04-21T07:13:00.513Z,2.5
2023-04-21T07:14:00.514Z,2.5
2023-04-21T07:15:00.538Z,2.5
2023-04-21T07:16:00.514Z,2.5
2023-04-21T07:17:00.644Z,2.5
2023-04-21T07:18:00.677Z,2.5
2023-04-21T07:19:00.503Z,2.5
2023-04-21T07:20:00.515Z,2.5
2023-04-21T07:21:00.520Z,2.4
2023-04-21T07:22:00.492Z,2.4
2023-04-21T07:23:00.513Z,2.4
2023-04-21T07:24:01.219Z,2.4
2023-04-21T07:25:01.831Z,2.4
2023-04-21T07:26:00.530Z,2.4
2023-04-21T07:27:00.521Z,2.4
2023-04-21T07:28:00.607Z,2.4
2023-04-21T07:29:00.518Z,2.4
2023-04-21T07:30:00.642Z,2.4
2023-04-21T07:31:03.382Z,3.1
2023-04-21T07:32:00.501Z,3.1
2023-04-21T07:33:00.643Z,3.1
2023-04-21T07:34:00.505Z,3.1
2023-04-21T07:35:00.498Z,3.1
2023-04-21T07:36:00.541Z,3.1
2023-04-21T07:37:00.606Z,3.1
2023-04-21T07:38:00.545Z,3.1
2023-04-21T07:39:00.581Z,3.1
2023-04-21T07:40:00.542Z,3.1
2023-04-21T07:41:00.497Z,2.5
2023-04-21T07:42:00.557Z,2.5
2023-04-21T07:43:00.513Z,2.5
2023-04-21T07:44:00.513Z,2.5
2023-04-21T07:45:00.499Z,2.5
2023-04-21T07:46:00.610Z,2.5
2023-04-21T07:47:00.498Z,2.5
2023-04-21T07:48:00.661Z,2.5
2023-04-21T07:49:03.609Z,2.5
2023-04-21T07:50:00.634Z,2.5
2023-04-21T07:51:00.733Z,2.8
2023-04-21T07:52:00.516Z,2.8
2023-04-21T07:53:00.614Z,2.8
2023-04-21T07:54:00.495Z,2.8
2023-04-21T07:55:00.555Z,2.8
2023-04-21T07:56:00.536Z,2.8
2023-04-21T07:57:00.550Z,2.8
2023-04-21T07:58:00.536Z,2.8
2023-04-21T07:59:00.537Z,2.8
2023-04-21T08:00:00.544Z,2.8
2023-04-21T08:01:00.558Z,2.6
2023-04-21T08:02:00.665Z,2.6
2023-04-21T08:03:00.633Z,2.6
2023-04-21T08:04:00.691Z,2.6
2023-04-21T08:05:00.765Z,2.6
2023-04-21T08:06:01.066Z,2.6
2023-04-21T08:07:00.622Z,2.6
2023-04-21T08:08:00.849Z,2.6
2023-04-21T08:09:00.560Z,2.6
2023-04-21T08:10:00.529Z,2.6
2023-04-21T08:11:00.507Z,2.5
2023-04-21T08:12:00.605Z,2.5
2023-04-21T08:13:00.547Z,2.5
2023-04-21T08:14:00.768Z,2.5
2023-04-21T08:15:00.517Z,2.5
2023-04-21T08:16:00.529Z,2.5
2023-04-21T08:17:00.605Z,2.5
2023-04-21T08:18:00.581Z,2.5
2023-04-21T08:19:00.536Z,2.5
2023-04-21T08:20:00.715Z,2.5
2023-04-21T08:21:00.520Z,2.6
2023-04-21T08:22:00.528Z,2.6
2023-04-21T08:23:00.614Z,2.6
2023-04-21T08:24:00.716Z,2.6
2023-04-21T08:25:00.501Z,2.6
2023-04-21T08:26:01.383Z,2.6
2023-04-21T08:27:00.600Z,2.6
2023-04-21T08:28:00.577Z,2.6
2023-04-21T08:29:03.505Z,2.6
2023-04-21T08:30:00.542Z,2.6
2023-04-21T08:31:00.611Z,2.6
2023-04-21T08:32:00.577Z,2.6
2023-04-21T08:33:00.631Z,2.6
2023-04-21T08:34:02.683Z,2.6
2023-04-21T08:35:00.488Z,2.6
2023-04-21T08:36:07.484Z,2.6
2023-04-21T08:37:00.540Z,2.6
2023-04-21T08:38:00.527Z,2.6
2023-04-21T08:39:00.764Z,2.6
2023-04-21T08:40:00.546Z,2.6
2023-04-21T08:41:02.353Z,2.7
2023-04-21T08:42:01.349Z,2.7
2023-04-21T08:43:00.576Z,2.7
2023-04-21T08:44:00.570Z,2.7
2023-04-21T08:45:00.855Z,2.7
2023-04-21T08:46:05.111Z,2.7
2023-04-21T08:47:02.253Z,2.7
2023-04-21T08:48:01.333Z,2.7
2023-04-21T08:49:00.655Z,2.7
2023-04-21T08:50:00.596Z,2.7
2023-04-21T08:51:00.911Z,2.1
2023-04-21T08:52:00.562Z,2.1
2023-04-21T08:53:00.520Z,2.1
2023-04-21T08:54:00.538Z,2.1
2023-04-21T08:55:00.593Z,2.1
2023-04-21T08:56:10.725Z,2.1
2023-04-21T08:57:11.924Z,2.1
2023-04-21T08:58:03.195Z,2.1
2023-04-21T08:59:00.521Z,2.1
2023-04-21T09:00:00.545Z,2.1
2023-04-21T09:01:00.554Z,2.9
2023-04-21T09:02:10.458Z,2.9
2023-04-21T09:03:02.161Z,2.9
2023-04-21T09:04:10.731Z,2.9
2023-04-21T09:05:00.911Z,2.9
2023-04-21T09:06:02.000Z,2.9
2023-04-21T09:07:00.550Z,2.9
2023-04-21T09:08:07.913Z,2.9
2023-04-21T09:09:01.062Z,2.9
2023-04-21T09:10:00.967Z,2.9
2023-04-21T09:11:00.721Z,2.8
2023-04-21T09:12:00.516Z,2.8
2023-04-21T09:13:05.771Z,2.8
2023-04-21T09:14:00.542Z,2.8
2023-04-21T09:15:03.666Z,2.8
2023-04-21T09:16:01.639Z,2.8
2023-04-21T09:17:01.460Z,2.8
2023-04-21T09:18:00.649Z,2.8
2023-04-21T09:19:00.619Z,2.8
2023-04-21T09:20:10.395Z,2.8
2023-04-21T09:21:08.792Z,2.8
2023-04-21T09:22:00.865Z,2.8
2023-04-21T09:23:03.514Z,2.8
2023-04-21T09:24:03.556Z,2.8
2023-04-21T09:25:00.609Z,2.8
2023-04-21T09:26:02.191Z,2.8
2023-04-21T09:27:02.734Z,2.8
2023-04-21T09:28:00.664Z,2.8
2023-04-21T09:29:05.014Z,2.8
2023-04-21T09:30:04.280Z,2.8
2023-04-21T09:31:00.680Z,2.8
2023-04-21T09:32:00.648Z,2.8
2023-04-21T09:33:00.602Z,2.8
2023-04-21T09:34:01.422Z,2.8
2023-04-21T09:35:00.553Z,2.8
2023-04-21T09:36:00.574Z,2.8
2023-04-21T09:37:01.381Z,2.8
2023-04-21T09:38:01.385Z,2.8
2023-04-21T09:40:05.150Z,2.8
2023-04-21T09:41:00.569Z,3.4
2023-04-21T09:42:00.493Z,3.4
2023-04-21T09:43:00.500Z,3.4
2023-04-21T09:44:00.701Z,3.4
2023-04-21T09:45:28.442Z,3.4
2023-04-21T09:46:02.439Z,3.4
2023-04-21T09:47:00.653Z,3.4
2023-04-21T09:48:00.835Z,3.4
2023-04-21T09:49:00.666Z,3.4
2023-04-21T09:50:00.689Z,3.4
2023-04-21T09:51:30.855Z,2.9
2023-04-21T09:53:02.528Z,2.9
2023-04-21T09:54:13.026Z,2.9
2023-04-21T09:55:00.778Z,2.9
2023-04-21T09:56:01.451Z,2.9
2023-04-21T09:57:02.665Z,2.9
2023-04-21T09:58:01.546Z,2.9
2023-04-21T09:59:00.715Z,2.9
2023-04-21T10:00:03.257Z,2.9
2023-04-21T10:01:00.773Z,2.6
2023-04-21T10:02:03.617Z,2.6
2023-04-21T10:03:03.545Z,2.6
2023-04-21T10:04:01.035Z,2.6
2023-04-21T10:05:00.743Z,2.6
2023-04-21T10:06:00.604Z,2.6
2023-04-21T10:07:00.762Z,2.6
2023-04-21T10:08:00.736Z,2.6
2023-04-21T10:09:01.717Z,2.6
2023-04-21T10:10:00.898Z,2.6
2023-04-21T10:11:01.147Z,2.7
2023-04-21T10:12:01.537Z,2.7
2023-04-21T10:13:01.266Z,2.7
2023-04-21T10:14:01.199Z,2.7
2023-04-21T10:15:03.291Z,2.7
2023-04-21T10:16:01.764Z,2.7
2023-04-21T10:17:04.939Z,2.7
2023-04-21T10:18:10.369Z,2.7
2023-04-21T10:19:00.523Z,2.7
2023-04-21T10:20:00.487Z,2.7
2023-04-21T10:21:01.401Z,2.6
2023-04-21T10:22:00.591Z,2.6
2023-04-21T10:23:00.525Z,2.6
2023-04-21T10:24:00.583Z,2.6
2023-04-21T10:25:01.640Z,2.6
2023-04-21T10:26:01.482Z,2.6
2023-04-21T10:27:00.499Z,2.6
2023-04-21T10:28:05.017Z,2.6
2023-04-21T10:29:02.798Z,2.6
2023-04-21T10:30:01.110Z,2.6
2023-04-21T10:31:10.436Z,2.9
2023-04-21T10:32:00.687Z,2.9
2023-04-21T10:33:02.422Z,2.9
2023-04-21T10:34:08.000Z,2.9
2023-04-21T10:35:00.590Z,2.9
2023-04-21T10:36:00.719Z,2.9
2023-04-21T10:37:01.500Z,2.9
2023-04-21T10:38:00.542Z,2.9
2023-04-21T10:39:01.146Z,2.9
2023-04-21T10:40:00.541Z,2.9
2023-04-21T10:41:10.368Z,3.0
2023-04-21T10:42:10.408Z,3.0
2023-04-21T10:43:02.612Z,3.0
2023-04-21T10:44:10.071Z,3.0
2023-04-21T10:45:04.249Z,3.0
2023-04-21T10:46:10.391Z,3.0
2023-04-21T10:47:00.535Z,3.0
2023-04-21T10:48:00.635Z,3.0
2023-04-21T10:49:08.388Z,3.0
2023-04-21T10:50:09.463Z,3.0
2023-04-21T10:51:00.532Z,2.9
2023-04-21T10:52:00.586Z,2.9
2023-04-21T10:53:08.659Z,2.9
2023-04-21T10:54:03.784Z,2.9
2023-04-21T10:55:00.497Z,2.9
2023-04-21T10:56:00.825Z,2.9
2023-04-21T10:57:00.658Z,2.9
2023-04-21T10:58:01.657Z,2.9
2023-04-21T10:59:00.582Z,2.9
2023-04-21T11:00:00.610Z,2.9
2023-04-21T11:01:01.537Z,2.6
2023-04-21T11:02:01.885Z,2.6
2023-04-21T11:03:01.562Z,2.6
2023-04-21T11:04:00.780Z,2.6
2023-04-21T11:05:01.310Z,2.6
2023-04-21T11:06:10.455Z,2.6
2023-04-21T11:07:05.296Z,2.6
2023-04-21T11:08:01.375Z,2.6
2023-04-21T11:09:00.512Z,2.6
2023-04-21T11:10:00.505Z,2.6
2023-04-21T11:11:00.513Z,2.9
2023-04-21T11:12:01.488Z,2.9
2023-04-21T11:13:00.490Z,2.9
2023-04-21T11:14:00.789Z,2.9
2023-04-21T11:15:02.614Z,2.9
2023-04-21T11:16:03.959Z,2.9
2023-04-21T11:17:01.036Z,2.9
2023-04-21T11:18:00.689Z,2.9
2023-04-21T11:19:00.647Z,2.9
2023-04-21T11:20:01.256Z,2.9
2023-04-21T11:21:08.225Z,3.1
2023-04-21T11:22:00.528Z,3.1
2023-04-21T11:23:00.500Z,3.1
2023-04-21T11:24:00.581Z,3.1
2023-04-21T11:25:00.615Z,3.1
2023-04-21T11:26:00.650Z,3.1
2023-04-21T11:27:00.520Z,3.1
2023-04-21T11:28:00.541Z,3.1
2023-04-21T11:29:01.272Z,3.1
2023-04-21T11:30:02.373Z,3.1
2023-04-21T11:31:00.640Z,3.6
2023-04-21T11:32:00.754Z,3.6
2023-04-21T11:33:00.890Z,3.6
2023-04-21T11:34:01.287Z,3.6
2023-04-21T11:35:00.638Z,3.6
2023-04-21T11:36:02.571Z,3.6
2023-04-21T11:37:00.538Z,3.6
2023-04-21T11:38:03.874Z,3.6
2023-04-21T11:39:04.968Z,3.6
2023-04-21T11:40:00.697Z,3.6
2023-04-21T11:41:00.640Z,2.8
2023-04-21T11:42:00.563Z,2.8
2023-04-21T11:43:02.072Z,2.8
2023-04-21T11:44:00.792Z,2.8
2023-04-21T11:45:00.535Z,2.8
2023-04-21T11:46:10.445Z,2.8
2023-04-21T11:47:10.375Z,2.8
2023-04-21T11:48:10.428Z,2.8
2023-04-21T11:49:02.682Z,2.8
2023-04-21T11:50:00.914Z,2.8
2023-04-21T11:51:00.539Z,3.5
2023-04-21T11:52:00.603Z,3.5
2023-04-21T11:53:01.451Z,3.5
2023-04-21T11:54:00.899Z,3.5
2023-04-21T11:55:01.490Z,3.5
2023-04-21T11:56:00.534Z,3.5
2023-04-21T11:57:02.540Z,3.5
2023-04-21T11:58:00.596Z,3.5
2023-04-21T11:59:01.063Z,3.5
2023-04-21T12:00:01.350Z,3.5
2023-04-21T12:01:06.311Z,2.9
2023-04-21T12:02:00.621Z,2.9
2023-04-21T12:03:00.992Z,2.9
2023-04-21T12:04:02.554Z,2.9
2023-04-21T12:05:00.887Z,2.9
2023-04-21T12:06:00.685Z,2.9
2023-04-21T12:07:01.405Z,2.9
2023-04-21T12:08:00.541Z,2.9
2023-04-21T12:09:01.621Z,2.9
2023-04-21T12:10:00.558Z,2.9
2023-04-21T12:11:01.331Z,3.0
2023-04-21T12:12:02.736Z,3.0
2023-04-21T12:13:00.510Z,3.0
2023-04-21T12:14:00.670Z,3.0
2023-04-21T12:15:00.510Z,3.0
2023-04-21T12:16:01.733Z,3.0
2023-04-21T12:17:00.509Z,3.0
2023-04-21T12:18:00.572Z,3.0
2023-04-21T12:19:00.522Z,3.0
2023-04-21T12:20:03.356Z,3.0
2023-04-21T12:21:00.939Z,3.1
2023-04-21T12:22:00.624Z,3.1
2023-04-21T12:23:00.530Z,3.1
2023-04-21T12:24:00.515Z,3.1
2023-04-21T12:25:00.604Z,3.1
2023-04-21T12:26:00.565Z,3.1
2023-04-21T12:27:00.667Z,3.1
2023-04-21T12:28:00.543Z,3.1
2023-04-21T12:29:00.578Z,3.1
2023-04-21T12:30:00.877Z,3.1
2023-04-21T12:31:00.624Z,3.3
2023-04-21T12:32:00.750Z,3.3
2023-04-21T12:33:00.696Z,3.3
2023-04-21T12:34:00.633Z,3.3
2023-04-21T12:35:00.557Z,3.3
2023-04-21T12:36:00.572Z,3.3
2023-04-21T12:37:01.065Z,3.3
2023-04-21T12:38:00.529Z,3.3
2023-04-21T12:39:00.521Z,3.3
2023-04-21T12:40:00.588Z,3.3
2023-04-21T12:41:00.522Z,3.3
2023-04-21T12:42:00.536Z,3.9
2023-04-21T12:43:00.499Z,3.9
2023-04-21T12:44:00.682Z,3.9
2023-04-21T12:45:00.493Z,3.9
2023-04-21T12:46:00.679Z,3.9
2023-04-21T12:47:00.712Z,3.9
2023-04-21T12:48:00.604Z,3.9
2023-04-21T12:49:00.513Z,3.9
2023-04-21T12:50:00.534Z,3.9
2023-04-21T12:51:00.495Z,3.9
2023-04-21T12:52:00.514Z,3.4
2023-04-21T12:53:00.507Z,3.4
2023-04-21T12:54:00.495Z,3.4
2023-04-21T12:55:00.535Z,3.4
2023-04-21T12:56:04.616Z,3.4
2023-04-21T12:57:01.024Z,3.4
2023-04-21T12:58:00.555Z,3.4
2023-04-21T12:59:00.549Z,3.4
2023-04-21T13:00:00.523Z,3.4
2023-04-21T13:01:00.572Z,3.4
2023-04-21T13:02:00.660Z,2.9
2023-04-21T13:03:01.013Z,2.9
2023-04-21T13:04:00.870Z,2.9
2023-04-21T13:05:00.516Z,2.9
2023-04-21T13:06:00.882Z,2.9
2023-04-21T13:07:00.610Z,2.9
2023-04-21T13:08:00.551Z,2.9
2023-04-21T13:09:00.578Z,2.9
2023-04-21T13:10:01.126Z,2.9
2023-04-21T13:11:00.538Z,2.9
2023-04-21T13:12:00.546Z,3.3
2023-04-21T13:13:00.510Z,3.3
2023-04-21T13:14:00.558Z,3.3
2023-04-21T13:15:00.699Z,3.3
2023-04-21T13:16:00.546Z,3.3
2023-04-21T13:17:00.602Z,3.3
2023-04-21T13:18:00.565Z,3.3
2023-04-21T13:19:00.530Z,3.3
2023-04-21T13:20:00.629Z,3.3
2023-04-21T13:21:00.830Z,3.3
2023-04-21T13:22:00.522Z,3.4
2023-04-21T13:23:00.510Z,3.4
2023-04-21T13:24:00.593Z,3.4
2023-04-21T13:25:00.630Z,3.4
2023-04-21T13:26:00.603Z,3.4
2023-04-21T13:27:00.514Z,3.4
2023-04-21T13:28:00.596Z,3.4
2023-04-21T13:29:01.074Z,3.4
2023-04-21T13:30:00.503Z,3.4
2023-04-21T13:31:00.804Z,3.4
2023-04-21T13:32:01.490Z,3.3
2023-04-21T13:33:00.552Z,3.3
2023-04-21T13:34:00.889Z,3.3
2023-04-21T13:35:00.570Z,3.3
2023-04-21T13:36:01.593Z,3.3
2023-04-21T13:37:00.867Z,3.3
2023-04-21T13:38:00.509Z,3.3
2023-04-21T13:39:00.713Z,3.3
2023-04-21T13:40:01.264Z,3.3
2023-04-21T13:41:00.729Z,3.3
2023-04-21T13:42:00.796Z,3.2
2023-04-21T13:43:00.544Z,3.2
2023-04-21T13:44:00.522Z,3.2
2023-04-21T13:45:00.527Z,3.2
2023-04-21T13:46:00.634Z,3.2
2023-04-21T13:47:00.627Z,3.2
2023-04-21T13:48:00.660Z,3.2
2023-04-21T13:49:00.554Z,3.2